sensor_id;sensor_type;location;lat;lon;timestamp;P1;durP1;ratioP1;P2;durP2;ratioP2
2406;SDS011;37709;53.480;9.688;2023-08-12T00:00:01;4.73;;;4.33;;
2406;SDS011;37709;53.480;9.688;2023-08-12T00:02:42;4.87;;;4.43;;
2406;SDS011;37709;53.480;9.688;2023-08-12T00:05:11;5.70;;;4.50;;
2406;SDS011;37709;53.480;9.688;2023-08-12T00:07:39;5.07;;;4.70;;
2406;SDS011;37709;53.480;9.688;2023-08-12T00:10:11;6.97;;;4.70;;
2406;SDS011;37709;53.480;9.688;2023-08-12T00:12:38;5.20;;;4.60;;
2406;SDS011;37709;53.480;9.688;2023-08-12T00:15:07;5.00;;;4.50;;
2406;SDS011;37709;53.480;9.688;2023-08-12T00:17:35;4.70;;;4.30;;
2406;SDS011;37709;53.480;9.688;2023-08-12T00:20:04;5.30;;;4.83;;
2406;SDS011;37709;53.480;9.688;2023-08-12T00:22:34;5.33;;;4.93;;
2406;SDS011;37709;53.480;9.688;2023-08-12T00:25:02;5.57;;;5.17;;
2406;SDS011;37709;53.480;9.688;2023-08-12T00:27:30;5.67;;;4.73;;
2406;SDS011;37709;53.480;9.688;2023-08-12T00:29:57;5.13;;;4.63;;
2406;SDS011;37709;53.480;9.688;2023-08-12T00:32:24;5.00;;;4.50;;
2406;SDS011;37709;53.480;9.688;2023-08-12T00:34:53;5.00;;;4.47;;
2406;SDS011;37709;53.480;9.688;2023-08-12T00:37:20;5.33;;;4.83;;
2406;SDS011;37709;53.480;9.688;2023-08-12T00:39:48;6.03;;;5.23;;
2406;SDS011;37709;53.480;9.688;2023-08-12T00:42:15;5.90;;;5.10;;
2406;SDS011;37709;53.480;9.688;2023-08-12T00:44:42;4.70;;;4.30;;
2406;SDS011;37709;53.480;9.688;2023-08-12T00:47:10;4.87;;;4.50;;
2406;SDS011;37709;53.480;9.688;2023-08-12T00:49:37;4.77;;;4.37;;
2406;SDS011;37709;53.480;9.688;2023-08-12T00:52:06;5.43;;;4.93;;
2406;SDS011;37709;53.480;9.688;2023-08-12T00:54:34;6.50;;;4.90;;
2406;SDS011;37709;53.480;9.688;2023-08-12T00:57:01;4.73;;;4.20;;
2406;SDS011;37709;53.480;9.688;2023-08-12T00:59:29;4.70;;;4.27;;
2406;SDS011;37709;53.480;9.688;2023-08-12T01:01:56;4.60;;;4.20;;
2406;SDS011;37709;53.480;9.688;2023-08-12T01:04:24;6.30;;;5.20;;
2406;SDS011;37709;53.480;9.688;2023-08-12T01:06:51;4.37;;;4.00;;
2406;SDS011;37709;53.480;9.688;2023-08-12T01:09:19;4.80;;;4.30;;
2406;SDS011;37709;53.480;9.688;2023-08-12T01:11:51;4.47;;;3.90;;
2406;SDS011;37709;53.480;9.688;2023-08-12T01:14:50;4.43;;;4.07;;
2406;SDS011;37709;53.480;9.688;2023-08-12T01:17:25;4.67;;;4.27;;
2406;SDS011;37709;53.480;9.688;2023-08-12T01:19:56;13.60;;;5.17;;
2406;SDS011;37709;53.480;9.688;2023-08-12T01:22:23;4.80;;;4.03;;
2406;SDS011;37709;53.480;9.688;2023-08-12T01:24:54;4.43;;;4.10;;
2406;SDS011;37709;53.480;9.688;2023-08-12T01:27:22;5.07;;;4.57;;
2406;SDS011;37709;53.480;9.688;2023-08-12T01:29:49;5.60;;;4.30;;
2406;SDS011;37709;53.480;9.688;2023-08-12T01:37:28;5.00;;;4.50;;
2406;SDS011;37709;53.480;9.688;2023-08-12T01:39:58;4.50;;;4.10;;
2406;SDS011;37709;53.480;9.688;2023-08-12T01:42:28;4.70;;;3.90;;
2406;SDS011;37709;53.480;9.688;2023-08-12T01:44:56;4.17;;;3.87;;
2406;SDS011;37709;53.480;9.688;2023-08-12T01:47:24;4.93;;;4.40;;
2406;SDS011;37709;53.480;9.688;2023-08-12T01:49:52;5.07;;;4.67;;
2406;SDS011;37709;53.480;9.688;2023-08-12T01:52:20;4.80;;;4.40;;
2406;SDS011;37709;53.480;9.688;2023-08-12T01:54:49;4.40;;;4.00;;
2406;SDS011;37709;53.480;9.688;2023-08-12T01:57:16;4.20;;;3.80;;
2406;SDS011;37709;53.480;9.688;2023-08-12T01:59:43;4.30;;;3.90;;
2406;SDS011;37709;53.480;9.688;2023-08-12T02:02:11;5.07;;;4.67;;
2406;SDS011;37709;53.480;9.688;2023-08-12T02:04:39;4.67;;;4.30;;
2406;SDS011;37709;53.480;9.688;2023-08-12T02:07:10;4.60;;;4.20;;
2406;SDS011;37709;53.480;9.688;2023-08-12T02:09:37;4.83;;;4.43;;
2406;SDS011;37709;53.480;9.688;2023-08-12T02:12:05;4.43;;;4.00;;
2406;SDS011;37709;53.480;9.688;2023-08-12T02:14:33;4.50;;;4.10;;
2406;SDS011;37709;53.480;9.688;2023-08-12T02:17:03;5.10;;;4.60;;
2406;SDS011;37709;53.480;9.688;2023-08-12T02:19:35;4.60;;;4.20;;
2406;SDS011;37709;53.480;9.688;2023-08-12T02:22:03;5.13;;;4.73;;
2406;SDS011;37709;53.480;9.688;2023-08-12T02:24:31;4.87;;;4.47;;
2406;SDS011;37709;53.480;9.688;2023-08-12T02:26:59;6.73;;;4.40;;
2406;SDS011;37709;53.480;9.688;2023-08-12T02:29:26;6.63;;;4.63;;
2406;SDS011;37709;53.480;9.688;2023-08-12T02:31:53;4.70;;;4.30;;
2406;SDS011;37709;53.480;9.688;2023-08-12T02:34:21;5.20;;;4.70;;
2406;SDS011;37709;53.480;9.688;2023-08-12T02:36:48;5.93;;;4.70;;
2406;SDS011;37709;53.480;9.688;2023-08-12T02:39:15;5.43;;;4.27;;
2406;SDS011;37709;53.480;9.688;2023-08-12T02:41:43;5.10;;;4.70;;
2406;SDS011;37709;53.480;9.688;2023-08-12T02:44:10;5.17;;;4.77;;
2406;SDS011;37709;53.480;9.688;2023-08-12T02:46:38;4.70;;;4.20;;
2406;SDS011;37709;53.480;9.688;2023-08-12T02:49:05;4.40;;;3.83;;
2406;SDS011;37709;53.480;9.688;2023-08-12T02:51:33;4.30;;;3.93;;
2406;SDS011;37709;53.480;9.688;2023-08-12T02:54:00;5.27;;;3.90;;
2406;SDS011;37709;53.480;9.688;2023-08-12T02:56:27;3.80;;;3.50;;
2406;SDS011;37709;53.480;9.688;2023-08-12T02:58:55;6.00;;;4.43;;
2406;SDS011;37709;53.480;9.688;2023-08-12T03:01:22;5.03;;;4.53;;
2406;SDS011;37709;53.480;9.688;2023-08-12T03:03:49;7.10;;;4.97;;
2406;SDS011;37709;53.480;9.688;2023-08-12T03:06:17;4.77;;;4.37;;
2406;SDS011;37709;53.480;9.688;2023-08-12T03:08:44;4.43;;;4.13;;
2406;SDS011;37709;53.480;9.688;2023-08-12T03:11:11;5.77;;;4.03;;
2406;SDS011;37709;53.480;9.688;2023-08-12T03:13:40;5.07;;;4.57;;
2406;SDS011;37709;53.480;9.688;2023-08-12T03:16:12;5.30;;;4.87;;
2406;SDS011;37709;53.480;9.688;2023-08-12T03:18:44;5.27;;;4.87;;
2406;SDS011;37709;53.480;9.688;2023-08-12T03:21:11;5.67;;;5.27;;
2406;SDS011;37709;53.480;9.688;2023-08-12T03:23:40;5.57;;;5.07;;
2406;SDS011;37709;53.480;9.688;2023-08-12T03:26:09;6.20;;;5.70;;
2406;SDS011;37709;53.480;9.688;2023-08-12T03:28:37;6.07;;;5.57;;
2406;SDS011;37709;53.480;9.688;2023-08-12T03:31:06;5.37;;;4.97;;
2406;SDS011;37709;53.480;9.688;2023-08-12T03:33:35;6.60;;;6.10;;
2406;SDS011;37709;53.480;9.688;2023-08-12T03:36:03;6.70;;;6.10;;
2406;SDS011;37709;53.480;9.688;2023-08-12T03:38:31;7.83;;;6.30;;
2406;SDS011;37709;53.480;9.688;2023-08-12T03:41:00;6.17;;;5.67;;
2406;SDS011;37709;53.480;9.688;2023-08-12T03:43:27;6.53;;;5.67;;
2406;SDS011;37709;53.480;9.688;2023-08-12T03:45:54;6.60;;;5.93;;
2406;SDS011;37709;53.480;9.688;2023-08-12T03:48:24;6.70;;;6.10;;
2406;SDS011;37709;53.480;9.688;2023-08-12T03:50:52;6.17;;;5.60;;
2406;SDS011;37709;53.480;9.688;2023-08-12T03:53:20;6.73;;;6.07;;
2406;SDS011;37709;53.480;9.688;2023-08-12T03:55:48;7.30;;;6.60;;
2406;SDS011;37709;53.480;9.688;2023-08-12T03:58:17;9.30;;;6.97;;
2406;SDS011;37709;53.480;9.688;2023-08-12T04:00:45;7.00;;;6.40;;
2406;SDS011;37709;53.480;9.688;2023-08-12T04:03:15;8.00;;;6.50;;
2406;SDS011;37709;53.480;9.688;2023-08-12T04:05:49;6.80;;;5.60;;
2406;SDS011;37709;53.480;9.688;2023-08-12T04:08:19;6.80;;;6.20;;
2406;SDS011;37709;53.480;9.688;2023-08-12T04:10:48;6.37;;;5.60;;
2406;SDS011;37709;53.480;9.688;2023-08-12T04:13:15;7.70;;;5.67;;
2406;SDS011;37709;53.480;9.688;2023-08-12T04:15:42;6.33;;;5.70;;
2406;SDS011;37709;53.480;9.688;2023-08-12T04:18:15;6.60;;;6.13;;
2406;SDS011;37709;53.480;9.688;2023-08-12T04:20:44;5.93;;;5.33;;
2406;SDS011;37709;53.480;9.688;2023-08-12T04:23:12;6.47;;;5.60;;
2406;SDS011;37709;53.480;9.688;2023-08-12T04:25:40;6.77;;;6.13;;
2406;SDS011;37709;53.480;9.688;2023-08-12T04:28:11;6.80;;;6.30;;
2406;SDS011;37709;53.480;9.688;2023-08-12T04:30:40;6.87;;;6.27;;
2406;SDS011;37709;53.480;9.688;2023-08-12T04:33:19;6.50;;;6.00;;
2406;SDS011;37709;53.480;9.688;2023-08-12T04:35:48;9.70;;;8.73;;
2406;SDS011;37709;53.480;9.688;2023-08-12T04:38:17;9.17;;;8.27;;
2406;SDS011;37709;53.480;9.688;2023-08-12T04:40:46;10.13;;;8.53;;
2406;SDS011;37709;53.480;9.688;2023-08-12T04:43:14;9.23;;;8.33;;
2406;SDS011;37709;53.480;9.688;2023-08-12T04:45:44;10.53;;;9.53;;
2406;SDS011;37709;53.480;9.688;2023-08-12T04:48:14;9.80;;;8.80;;
2406;SDS011;37709;53.480;9.688;2023-08-12T04:50:42;11.00;;;8.90;;
2406;SDS011;37709;53.480;9.688;2023-08-12T04:53:09;9.90;;;9.00;;
2406;SDS011;37709;53.480;9.688;2023-08-12T04:55:37;9.83;;;8.77;;
2406;SDS011;37709;53.480;9.688;2023-08-12T04:58:05;10.67;;;9.67;;
2406;SDS011;37709;53.480;9.688;2023-08-12T05:00:33;9.67;;;8.80;;
2406;SDS011;37709;53.480;9.688;2023-08-12T05:03:01;11.40;;;10.40;;
2406;SDS011;37709;53.480;9.688;2023-08-12T05:05:30;12.23;;;11.00;;
2406;SDS011;37709;53.480;9.688;2023-08-12T05:07:58;14.83;;;13.37;;
2406;SDS011;37709;53.480;9.688;2023-08-12T05:10:25;13.97;;;12.57;;
2406;SDS011;37709;53.480;9.688;2023-08-12T05:12:52;11.50;;;10.40;;
2406;SDS011;37709;53.480;9.688;2023-08-12T05:15:21;17.17;;;13.20;;
2406;SDS011;37709;53.480;9.688;2023-08-12T05:17:49;14.93;;;13.53;;
2406;SDS011;37709;53.480;9.688;2023-08-12T05:20:20;21.10;;;13.70;;
2406;SDS011;37709;53.480;9.688;2023-08-12T05:22:48;16.80;;;14.27;;
2406;SDS011;37709;53.480;9.688;2023-08-12T05:25:15;26.33;;;17.10;;
2406;SDS011;37709;53.480;9.688;2023-08-12T05:27:43;29.43;;;18.47;;
2406;SDS011;37709;53.480;9.688;2023-08-12T05:30:11;22.90;;;17.77;;
2406;SDS011;37709;53.480;9.688;2023-08-12T05:32:38;32.53;;;20.30;;
2406;SDS011;37709;53.480;9.688;2023-08-12T05:35:06;47.30;;;24.10;;
2406;SDS011;37709;53.480;9.688;2023-08-12T05:37:34;30.70;;;21.70;;
2406;SDS011;37709;53.480;9.688;2023-08-12T05:40:02;29.97;;;21.20;;
2406;SDS011;37709;53.480;9.688;2023-08-12T05:42:35;42.07;;;22.63;;
2406;SDS011;37709;53.480;9.688;2023-08-12T05:45:03;27.53;;;20.57;;
2406;SDS011;37709;53.480;9.688;2023-08-12T05:47:34;40.27;;;22.23;;
2406;SDS011;37709;53.480;9.688;2023-08-12T05:50:02;48.10;;;22.40;;
2406;SDS011;37709;53.480;9.688;2023-08-12T05:52:29;33.53;;;21.33;;
2406;SDS011;37709;53.480;9.688;2023-08-12T05:54:56;37.60;;;23.40;;
2406;SDS011;37709;53.480;9.688;2023-08-12T05:57:24;33.30;;;23.63;;
2406;SDS011;37709;53.480;9.688;2023-08-12T05:59:55;46.23;;;27.80;;
2406;SDS011;37709;53.480;9.688;2023-08-12T06:02:22;49.97;;;26.70;;
2406;SDS011;37709;53.480;9.688;2023-08-12T06:04:49;40.57;;;24.77;;
2406;SDS011;37709;53.480;9.688;2023-08-12T06:07:17;48.57;;;27.43;;
2406;SDS011;37709;53.480;9.688;2023-08-12T06:09:45;52.80;;;27.83;;
2406;SDS011;37709;53.480;9.688;2023-08-12T06:12:12;37.23;;;25.23;;
2406;SDS011;37709;53.480;9.688;2023-08-12T06:14:40;26.03;;;22.30;;
2406;SDS011;37709;53.480;9.688;2023-08-12T06:17:07;31.93;;;23.53;;
2406;SDS011;37709;53.480;9.688;2023-08-12T06:19:35;46.57;;;28.30;;
2406;SDS011;37709;53.480;9.688;2023-08-12T06:22:02;57.80;;;32.00;;
2406;SDS011;37709;53.480;9.688;2023-08-12T06:24:30;60.47;;;32.57;;
2406;SDS011;37709;53.480;9.688;2023-08-12T06:26:58;58.37;;;32.30;;
2406;SDS011;37709;53.480;9.688;2023-08-12T06:29:25;78.93;;;34.90;;
2406;SDS011;37709;53.480;9.688;2023-08-12T06:31:53;75.97;;;37.70;;
2406;SDS011;37709;53.480;9.688;2023-08-12T06:34:21;65.27;;;33.60;;
2406;SDS011;37709;53.480;9.688;2023-08-12T06:36:48;65.90;;;35.57;;
2406;SDS011;37709;53.480;9.688;2023-08-12T06:39:15;68.40;;;37.07;;
2406;SDS011;37709;53.480;9.688;2023-08-12T06:41:43;54.03;;;32.03;;
2406;SDS011;37709;53.480;9.688;2023-08-12T06:44:11;55.33;;;35.57;;
2406;SDS011;37709;53.480;9.688;2023-08-12T06:46:39;82.93;;;39.33;;
2406;SDS011;37709;53.480;9.688;2023-08-12T06:49:07;56.23;;;36.10;;
2406;SDS011;37709;53.480;9.688;2023-08-12T06:51:34;70.00;;;37.60;;
2406;SDS011;37709;53.480;9.688;2023-08-12T06:54:02;56.17;;;34.97;;
2406;SDS011;37709;53.480;9.688;2023-08-12T06:56:29;79.27;;;41.37;;
2406;SDS011;37709;53.480;9.688;2023-08-12T06:58:58;81.90;;;41.87;;
2406;SDS011;37709;53.480;9.688;2023-08-12T07:01:26;57.57;;;34.73;;
2406;SDS011;37709;53.480;9.688;2023-08-12T07:03:53;67.40;;;39.07;;
2406;SDS011;37709;53.480;9.688;2023-08-12T07:06:21;76.17;;;41.17;;
2406;SDS011;37709;53.480;9.688;2023-08-12T07:08:49;71.07;;;40.80;;
2406;SDS011;37709;53.480;9.688;2023-08-12T07:11:16;63.20;;;38.10;;
2406;SDS011;37709;53.480;9.688;2023-08-12T07:13:43;91.93;;;44.70;;
2406;SDS011;37709;53.480;9.688;2023-08-12T07:16:14;65.77;;;39.87;;
2406;SDS011;37709;53.480;9.688;2023-08-12T07:18:41;57.40;;;35.33;;
2406;SDS011;37709;53.480;9.688;2023-08-12T07:21:09;70.40;;;39.93;;
2406;SDS011;37709;53.480;9.688;2023-08-12T07:23:37;49.40;;;35.80;;
2406;SDS011;37709;53.480;9.688;2023-08-12T07:26:09;55.87;;;35.77;;
2406;SDS011;37709;53.480;9.688;2023-08-12T07:28:37;57.47;;;35.63;;
2406;SDS011;37709;53.480;9.688;2023-08-12T07:31:04;39.83;;;32.50;;
2406;SDS011;37709;53.480;9.688;2023-08-12T07:33:31;55.10;;;35.60;;
2406;SDS011;37709;53.480;9.688;2023-08-12T07:35:59;31.50;;;28.03;;
2406;SDS011;37709;53.480;9.688;2023-08-12T07:38:27;33.63;;;29.27;;
2406;SDS011;37709;53.480;9.688;2023-08-12T07:40:54;29.60;;;25.57;;
2406;SDS011;37709;53.480;9.688;2023-08-12T07:43:21;32.37;;;27.83;;
2406;SDS011;37709;53.480;9.688;2023-08-12T07:45:50;29.50;;;25.50;;
2406;SDS011;37709;53.480;9.688;2023-08-12T07:48:36;30.03;;;24.50;;
2406;SDS011;37709;53.480;9.688;2023-08-12T07:51:05;27.40;;;24.40;;
2406;SDS011;37709;53.480;9.688;2023-08-12T07:53:32;31.73;;;26.10;;
2406;SDS011;37709;53.480;9.688;2023-08-12T07:56:00;34.40;;;28.70;;
2406;SDS011;37709;53.480;9.688;2023-08-12T07:58:28;37.90;;;29.87;;
2406;SDS011;37709;53.480;9.688;2023-08-12T08:00:55;35.80;;;28.47;;
2406;SDS011;37709;53.480;9.688;2023-08-12T08:03:22;34.50;;;29.07;;
2406;SDS011;37709;53.480;9.688;2023-08-12T08:08:42;25.73;;;23.13;;
2406;SDS011;37709;53.480;9.688;2023-08-12T08:11:10;24.10;;;21.83;;
2406;SDS011;37709;53.480;9.688;2023-08-12T08:13:37;22.60;;;20.20;;
2406;SDS011;37709;53.480;9.688;2023-08-12T08:16:05;21.20;;;19.30;;
2406;SDS011;37709;53.480;9.688;2023-08-12T08:18:33;30.50;;;21.30;;
2406;SDS011;37709;53.480;9.688;2023-08-12T08:21:00;23.63;;;19.70;;
2406;SDS011;37709;53.480;9.688;2023-08-12T08:23:31;29.37;;;24.30;;
2406;SDS011;37709;53.480;9.688;2023-08-12T08:25:59;31.23;;;25.20;;
2406;SDS011;37709;53.480;9.688;2023-08-12T08:28:26;25.30;;;22.90;;
2406;SDS011;37709;53.480;9.688;2023-08-12T08:30:53;34.80;;;26.63;;
2406;SDS011;37709;53.480;9.688;2023-08-12T08:33:21;19.17;;;16.67;;
2406;SDS011;37709;53.480;9.688;2023-08-12T08:35:48;19.70;;;17.63;;
2406;SDS011;37709;53.480;9.688;2023-08-12T08:38:15;19.27;;;17.37;;
2406;SDS011;37709;53.480;9.688;2023-08-12T08:40:43;15.50;;;13.80;;
2406;SDS011;37709;53.480;9.688;2023-08-12T08:43:11;17.00;;;15.30;;
2406;SDS011;37709;53.480;9.688;2023-08-12T08:45:42;14.80;;;13.40;;
2406;SDS011;37709;53.480;9.688;2023-08-12T08:48:11;15.63;;;13.00;;
2406;SDS011;37709;53.480;9.688;2023-08-12T08:50:39;14.60;;;13.20;;
2406;SDS011;37709;53.480;9.688;2023-08-12T08:56:01;12.60;;;11.17;;
2406;SDS011;37709;53.480;9.688;2023-08-12T08:58:29;11.10;;;10.00;;
2406;SDS011;37709;53.480;9.688;2023-08-12T09:00:56;10.50;;;9.53;;
2406;SDS011;37709;53.480;9.688;2023-08-12T09:03:25;11.17;;;10.10;;
2406;SDS011;37709;53.480;9.688;2023-08-12T09:05:54;12.00;;;10.90;;
2406;SDS011;37709;53.480;9.688;2023-08-12T09:08:22;10.13;;;9.23;;
2406;SDS011;37709;53.480;9.688;2023-08-12T09:10:51;10.27;;;9.37;;
2406;SDS011;37709;53.480;9.688;2023-08-12T09:13:20;10.13;;;9.13;;
2406;SDS011;37709;53.480;9.688;2023-08-12T09:15:47;11.30;;;10.20;;
2406;SDS011;37709;53.480;9.688;2023-08-12T09:18:16;10.63;;;9.53;;
2406;SDS011;37709;53.480;9.688;2023-08-12T09:20:44;9.67;;;8.77;;
2406;SDS011;37709;53.480;9.688;2023-08-12T09:23:12;8.30;;;7.50;;
2406;SDS011;37709;53.480;9.688;2023-08-12T09:25:41;10.03;;;8.40;;
2406;SDS011;37709;53.480;9.688;2023-08-12T09:28:11;8.03;;;7.43;;
2406;SDS011;37709;53.480;9.688;2023-08-12T09:30:39;8.27;;;7.47;;
2406;SDS011;37709;53.480;9.688;2023-08-12T09:33:08;8.47;;;7.67;;
2406;SDS011;37709;53.480;9.688;2023-08-12T09:35:37;8.93;;;8.10;;
2406;SDS011;37709;53.480;9.688;2023-08-12T09:38:15;7.33;;;6.63;;
2406;SDS011;37709;53.480;9.688;2023-08-12T09:40:43;6.80;;;6.20;;
2406;SDS011;37709;53.480;9.688;2023-08-12T09:43:13;6.40;;;5.80;;
2406;SDS011;37709;53.480;9.688;2023-08-12T09:45:44;7.03;;;6.43;;
2406;SDS011;37709;53.480;9.688;2023-08-12T09:48:12;6.40;;;5.80;;
2406;SDS011;37709;53.480;9.688;2023-08-12T09:50:43;7.17;;;6.33;;
2406;SDS011;37709;53.480;9.688;2023-08-12T09:53:11;8.57;;;5.97;;
2406;SDS011;37709;53.480;9.688;2023-08-12T09:55:38;5.73;;;5.23;;
2406;SDS011;37709;53.480;9.688;2023-08-12T09:58:09;6.50;;;5.67;;
2406;SDS011;37709;53.480;9.688;2023-08-12T10:00:38;7.10;;;5.60;;
2406;SDS011;37709;53.480;9.688;2023-08-12T10:03:08;6.20;;;5.70;;
2406;SDS011;37709;53.480;9.688;2023-08-12T10:05:38;6.67;;;5.50;;
2406;SDS011;37709;53.480;9.688;2023-08-12T10:08:07;7.17;;;5.80;;
2406;SDS011;37709;53.480;9.688;2023-08-12T10:10:37;7.83;;;5.17;;
2406;SDS011;37709;53.480;9.688;2023-08-12T10:13:06;7.10;;;5.53;;
2406;SDS011;37709;53.480;9.688;2023-08-12T10:15:34;7.20;;;6.20;;
2406;SDS011;37709;53.480;9.688;2023-08-12T10:18:04;7.43;;;6.80;;
2406;SDS011;37709;53.480;9.688;2023-08-12T10:20:36;7.33;;;6.63;;
2406;SDS011;37709;53.480;9.688;2023-08-12T10:23:05;7.80;;;7.10;;
2406;SDS011;37709;53.480;9.688;2023-08-12T10:25:35;8.40;;;7.50;;
2406;SDS011;37709;53.480;9.688;2023-08-12T10:28:07;8.50;;;7.67;;
2406;SDS011;37709;53.480;9.688;2023-08-12T10:30:35;9.53;;;8.57;;
2406;SDS011;37709;53.480;9.688;2023-08-12T10:33:02;10.50;;;9.40;;
2406;SDS011;37709;53.480;9.688;2023-08-12T10:35:43;11.40;;;9.83;;
2406;SDS011;37709;53.480;9.688;2023-08-12T10:38:13;9.07;;;8.17;;
2406;SDS011;37709;53.480;9.688;2023-08-12T10:40:45;8.60;;;7.90;;
2406;SDS011;37709;53.480;9.688;2023-08-12T10:43:13;8.50;;;6.93;;
2406;SDS011;37709;53.480;9.688;2023-08-12T10:45:48;8.90;;;7.17;;
2406;SDS011;37709;53.480;9.688;2023-08-12T10:48:23;8.90;;;8.00;;
2406;SDS011;37709;53.480;9.688;2023-08-12T10:50:53;7.60;;;6.90;;
2406;SDS011;37709;53.480;9.688;2023-08-12T10:53:22;7.43;;;6.83;;
2406;SDS011;37709;53.480;9.688;2023-08-12T10:56:01;7.87;;;7.20;;
2406;SDS011;37709;53.480;9.688;2023-08-12T10:58:34;9.00;;;7.97;;
2406;SDS011;37709;53.480;9.688;2023-08-12T11:01:08;7.93;;;7.30;;
2406;SDS011;37709;53.480;9.688;2023-08-12T11:03:42;8.40;;;7.53;;
2406;SDS011;37709;53.480;9.688;2023-08-12T11:06:11;8.37;;;7.50;;
2406;SDS011;37709;53.480;9.688;2023-08-12T11:08:46;9.80;;;8.50;;
2406;SDS011;37709;53.480;9.688;2023-08-12T11:11:21;9.37;;;8.47;;
2406;SDS011;37709;53.480;9.688;2023-08-12T11:13:53;9.90;;;8.30;;
2406;SDS011;37709;53.480;9.688;2023-08-12T11:16:35;9.40;;;8.50;;
2406;SDS011;37709;53.480;9.688;2023-08-12T11:19:03;9.37;;;8.47;;
2406;SDS011;37709;53.480;9.688;2023-08-12T11:21:31;9.87;;;8.90;;
2406;SDS011;37709;53.480;9.688;2023-08-12T11:23:59;10.43;;;9.20;;
2406;SDS011;37709;53.480;9.688;2023-08-12T11:26:45;12.10;;;10.90;;
2406;SDS011;37709;53.480;9.688;2023-08-12T11:29:13;20.50;;;10.67;;
2406;SDS011;37709;53.480;9.688;2023-08-12T11:31:41;17.57;;;11.50;;
2406;SDS011;37709;53.480;9.688;2023-08-12T11:34:08;40.00;;;14.37;;
2406;SDS011;37709;53.480;9.688;2023-08-12T11:36:36;77.23;;;19.83;;
2406;SDS011;37709;53.480;9.688;2023-08-12T11:39:03;51.83;;;20.57;;
2406;SDS011;37709;53.480;9.688;2023-08-12T11:41:30;27.43;;;17.37;;
2406;SDS011;37709;53.480;9.688;2023-08-12T11:44:01;29.20;;;19.27;;
2406;SDS011;37709;53.480;9.688;2023-08-12T11:46:28;36.23;;;21.90;;
2406;SDS011;37709;53.480;9.688;2023-08-12T11:48:59;42.23;;;23.60;;
2406;SDS011;37709;53.480;9.688;2023-08-12T11:51:27;23.57;;;19.23;;
2406;SDS011;37709;53.480;9.688;2023-08-12T11:53:55;29.77;;;20.30;;
2406;SDS011;37709;53.480;9.688;2023-08-12T11:56:23;67.10;;;30.30;;
2406;SDS011;37709;53.480;9.688;2023-08-12T11:58:50;38.13;;;23.67;;
2406;SDS011;37709;53.480;9.688;2023-08-12T12:01:22;48.80;;;26.80;;
2406;SDS011;37709;53.480;9.688;2023-08-12T12:03:55;67.30;;;30.80;;
2406;SDS011;37709;53.480;9.688;2023-08-12T12:06:37;73.67;;;32.60;;
2406;SDS011;37709;53.480;9.688;2023-08-12T12:09:06;80.20;;;34.27;;
2406;SDS011;37709;53.480;9.688;2023-08-12T12:11:36;83.23;;;31.33;;
2406;SDS011;37709;53.480;9.688;2023-08-12T12:14:05;77.67;;;36.87;;
2406;SDS011;37709;53.480;9.688;2023-08-12T12:16:37;69.07;;;36.80;;
2406;SDS011;37709;53.480;9.688;2023-08-12T12:19:19;97.30;;;34.37;;
2406;SDS011;37709;53.480;9.688;2023-08-12T12:21:51;84.87;;;34.83;;
2406;SDS011;37709;53.480;9.688;2023-08-12T12:24:19;94.80;;;41.63;;
2406;SDS011;37709;53.480;9.688;2023-08-12T12:26:47;44.37;;;29.00;;
2406;SDS011;37709;53.480;9.688;2023-08-12T12:29:16;45.03;;;28.00;;
2406;SDS011;37709;53.480;9.688;2023-08-12T12:31:43;29.97;;;22.83;;
2406;SDS011;37709;53.480;9.688;2023-08-12T12:34:10;41.60;;;26.60;;
2406;SDS011;37709;53.480;9.688;2023-08-12T12:36:38;43.50;;;26.00;;
2406;SDS011;37709;53.480;9.688;2023-08-12T12:39:05;38.83;;;25.10;;
2406;SDS011;37709;53.480;9.688;2023-08-12T12:41:34;62.17;;;31.87;;
2406;SDS011;37709;53.480;9.688;2023-08-12T12:44:02;31.20;;;22.67;;
2406;SDS011;37709;53.480;9.688;2023-08-12T12:46:30;30.77;;;23.80;;
2406;SDS011;37709;53.480;9.688;2023-08-12T12:48:58;25.33;;;22.57;;
2406;SDS011;37709;53.480;9.688;2023-08-12T12:51:25;21.33;;;18.10;;
2406;SDS011;37709;53.480;9.688;2023-08-12T12:53:54;16.63;;;15.13;;
2406;SDS011;37709;53.480;9.688;2023-08-12T12:56:22;16.43;;;14.80;;
2406;SDS011;37709;53.480;9.688;2023-08-12T12:58:49;15.17;;;13.80;;
2406;SDS011;37709;53.480;9.688;2023-08-12T13:04:09;14.57;;;13.30;;
2406;SDS011;37709;53.480;9.688;2023-08-12T13:06:36;14.13;;;12.93;;
2406;SDS011;37709;53.480;9.688;2023-08-12T13:09:04;12.60;;;11.50;;
2406;SDS011;37709;53.480;9.688;2023-08-12T13:11:33;14.10;;;12.80;;
2406;SDS011;37709;53.480;9.688;2023-08-12T13:14:03;13.63;;;12.43;;
2406;SDS011;37709;53.480;9.688;2023-08-12T13:16:31;13.17;;;11.97;;
2406;SDS011;37709;53.480;9.688;2023-08-12T13:18:58;11.97;;;10.97;;
2406;SDS011;37709;53.480;9.688;2023-08-12T13:21:27;12.00;;;10.93;;
2406;SDS011;37709;53.480;9.688;2023-08-12T13:23:54;10.97;;;9.93;;
2406;SDS011;37709;53.480;9.688;2023-08-12T13:26:24;12.17;;;11.07;;
2406;SDS011;37709;53.480;9.688;2023-08-12T13:28:51;11.53;;;10.53;;
2406;SDS011;37709;53.480;9.688;2023-08-12T13:31:20;12.30;;;11.20;;
2406;SDS011;37709;53.480;9.688;2023-08-12T13:33:52;13.77;;;12.43;;
2406;SDS011;37709;53.480;9.688;2023-08-12T13:36:19;13.50;;;12.10;;
2406;SDS011;37709;53.480;9.688;2023-08-12T13:38:47;13.53;;;12.13;;
2406;SDS011;37709;53.480;9.688;2023-08-12T13:41:15;18.10;;;13.73;;
2406;SDS011;37709;53.480;9.688;2023-08-12T13:43:42;19.57;;;15.10;;
2406;SDS011;37709;53.480;9.688;2023-08-12T13:46:10;15.93;;;14.23;;
2406;SDS011;37709;53.480;9.688;2023-08-12T13:48:37;16.50;;;14.80;;
2406;SDS011;37709;53.480;9.688;2023-08-12T13:51:14;15.33;;;14.13;;
2406;SDS011;37709;53.480;9.688;2023-08-12T13:53:42;14.43;;;13.23;;
2406;SDS011;37709;53.480;9.688;2023-08-12T13:56:09;14.03;;;12.83;;
2406;SDS011;37709;53.480;9.688;2023-08-12T13:58:38;13.90;;;12.70;;
2406;SDS011;37709;53.480;9.688;2023-08-12T14:01:05;11.37;;;10.47;;
2406;SDS011;37709;53.480;9.688;2023-08-12T14:03:33;10.30;;;9.40;;
2406;SDS011;37709;53.480;9.688;2023-08-12T14:06:01;11.90;;;10.83;;
2406;SDS011;37709;53.480;9.688;2023-08-12T14:11:22;14.07;;;12.40;;
2406;SDS011;37709;53.480;9.688;2023-08-12T14:13:49;13.60;;;12.60;;
2406;SDS011;37709;53.480;9.688;2023-08-12T14:16:19;14.43;;;12.93;;
2406;SDS011;37709;53.480;9.688;2023-08-12T14:18:46;16.43;;;14.90;;
2406;SDS011;37709;53.480;9.688;2023-08-12T14:21:13;18.13;;;16.53;;
2406;SDS011;37709;53.480;9.688;2023-08-12T14:23:44;17.53;;;15.83;;
2406;SDS011;37709;53.480;9.688;2023-08-12T14:26:12;16.13;;;14.73;;
2406;SDS011;37709;53.480;9.688;2023-08-12T14:28:39;19.07;;;16.27;;
2406;SDS011;37709;53.480;9.688;2023-08-12T14:31:07;15.27;;;13.83;;
2406;SDS011;37709;53.480;9.688;2023-08-12T14:33:34;16.37;;;14.90;;
2406;SDS011;37709;53.480;9.688;2023-08-12T14:36:04;16.20;;;14.70;;
2406;SDS011;37709;53.480;9.688;2023-08-12T14:38:32;17.10;;;15.43;;
2406;SDS011;37709;53.480;9.688;2023-08-12T14:41:01;159.40;;;27.60;;
2406;SDS011;37709;53.480;9.688;2023-08-12T14:43:31;81.03;;;26.00;;
2406;SDS011;37709;53.480;9.688;2023-08-12T14:45:59;55.83;;;29.10;;
2406;SDS011;37709;53.480;9.688;2023-08-12T14:48:27;33.30;;;25.50;;
2406;SDS011;37709;53.480;9.688;2023-08-12T14:50:55;29.07;;;24.10;;
2406;SDS011;37709;53.480;9.688;2023-08-12T14:53:22;65.13;;;33.20;;
2406;SDS011;37709;53.480;9.688;2023-08-12T14:55:51;26.80;;;22.90;;
2406;SDS011;37709;53.480;9.688;2023-08-12T14:58:20;43.13;;;27.47;;
2406;SDS011;37709;53.480;9.688;2023-08-12T15:00:47;42.47;;;27.47;;
2406;SDS011;37709;53.480;9.688;2023-08-12T15:03:15;57.23;;;34.07;;
2406;SDS011;37709;53.480;9.688;2023-08-12T15:05:43;26.77;;;23.97;;
2406;SDS011;37709;53.480;9.688;2023-08-12T15:08:11;24.87;;;22.30;;
2406;SDS011;37709;53.480;9.688;2023-08-12T15:10:39;20.53;;;18.63;;
2406;SDS011;37709;53.480;9.688;2023-08-12T15:13:06;20.67;;;18.83;;